Time;durP1;ratioP1;P1;durP2;ratioP2;P2;SDS_P1;SDS_P2;PMS_P1;PMS_P2;Temp;Humidity;BMP_temperature;BMP_pressure;BME280_temperature;BME280_humidity;BME280_pressure;Samples;Min_cycle;Max_cycle;Signal;HPM_P1;HPM_P2
2021/11/12 00:04:18;;;;;;;1.40;1.30;;;12.10;99.90;;;;;;5048185;28;20215;-71
2021/11/12 00:12:27;;;;;;;2.27;1.40;;;12.20;99.90;;;;;;4979232;28;20243;-71
2021/11/12 00:14:55;;;;;;;2.00;1.90;;;12.10;99.90;;;;;;4985630;28;20723;-72
2021/11/12 00:17:26;;;;;;;2.20;2.00;;;12.20;99.90;;;;;;5005064;28;20298;-72
2021/11/12 00:19:54;;;;;;;2.10;1.90;;;12.10;99.90;;;;;;4978865;28;20224;-72
2021/11/12 00:22:23;;;;;;;1.60;1.50;;;12.10;99.90;;;;;;4984656;28;20210;-71
2021/11/12 00:24:53;;;;;;;1.90;1.80;;;12.10;99.90;;;;;;4986176;28;20233;-71
2021/11/12 00:27:20;;;;;;;1.60;1.50;;;12.10;99.90;;;;;;4991430;28;20267;-71
2021/11/12 00:29:53;;;;;;;1.30;1.30;;;12.10;99.90;;;;;;4983425;28;20211;-72
2021/11/12 00:32:27;;;;;;;1.70;1.60;;;12.10;99.90;;;;;;4992252;28;20691;-72
2021/11/12 00:35:06;;;;;;;1.50;1.40;;;12.20;99.90;;;;;;5005197;28;20501;-72
2021/11/12 00:37:48;;;;;;;1.43;1.33;;;12.20;99.90;;;;;;5005157;28;20230;-72
2021/11/12 00:40:18;;;;;;;1.10;1.10;;;12.20;99.90;;;;;;4987698;28;20210;-72
2021/11/12 00:43:04;;;;;;;1.03;1.03;;;12.20;99.90;;;;;;5004160;28;20242;-72
2021/11/12 00:45:34;;;;;;;1.80;1.57;;;12.30;99.90;;;;;;5017304;28;20391;-71
2021/11/12 00:48:11;;;;;;;1.70;1.60;;;12.30;99.90;;;;;;5060655;28;20290;-71
2021/11/12 00:50:55;;;;;;;2.03;1.57;;;12.20;99.90;;;;;;5046656;28;20684;-71
2021/11/12 00:56:08;;;;;;;1.23;1.13;;;12.30;99.90;;;;;;5046669;28;20230;-73
2021/11/12 00:58:35;;;;;;;1.20;1.10;;;12.30;99.90;;;;;;5046426;28;20211;-72
2021/11/12 01:01:04;;;;;;;1.50;1.40;;;12.30;99.90;;;;;;5047623;28;20613;-72
2021/11/12 01:03:32;;;;;;;1.57;1.33;;;12.30;99.90;;;;;;5045704;28;20198;-71
2021/11/12 01:05:59;;;;;;;1.60;1.50;;;12.30;99.90;;;;;;5046953;28;20229;-71
2021/11/12 01:08:27;;;;;;;1.50;1.40;;;12.30;99.90;;;;;;5047428;28;20702;-71
2021/11/12 01:10:55;;;;;;;1.20;1.13;;;12.40;99.90;;;;;;5058470;28;20202;-71
2021/11/12 01:13:25;;;;;;;1.20;1.10;;;12.40;99.90;;;;;;5037341;28;20258;-72
2021/11/12 01:15:53;;;;;;;1.40;1.30;;;12.30;99.90;;;;;;5047313;28;20300;-72
2021/11/12 01:18:20;;;;;;;1.07;0.97;;;12.40;99.90;;;;;;5047107;28;20194;-71
2021/11/12 01:20:47;;;;;;;1.50;1.40;;;12.40;99.90;;;;;;5045484;28;20244;-72
2021/11/12 01:23:15;;;;;;;2.33;1.50;;;12.40;99.90;;;;;;5051982;28;20214;-72
2021/11/12 01:25:42;;;;;;;1.70;1.53;;;12.40;99.90;;;;;;5059217;28;20225;-72
2021/11/12 01:28:10;;;;;;;3.40;2.37;;;12.40;99.90;;;;;;5042869;28;20216;-72
2021/11/12 01:30:38;;;;;;;2.30;2.10;;;12.40;99.90;;;;;;5046551;28;20618;-72
2021/11/12 01:33:06;;;;;;;1.90;1.80;;;12.40;99.90;;;;;;5046455;28;20193;-72
2021/11/12 01:35:34;;;;;;;1.40;1.30;;;12.40;99.90;;;;;;5048944;28;20201;-72
2021/11/12 01:38:02;;;;;;;1.23;1.13;;;12.40;99.90;;;;;;5048401;28;20218;-72
2021/11/12 01:40:29;;;;;;;1.47;1.27;;;12.40;99.90;;;;;;5050049;28;20234;-71
2021/11/12 01:43:04;;;;;;;1.20;1.10;;;12.40;99.90;;;;;;5045409;28;20194;-71
2021/11/12 01:45:44;;;;;;;1.33;1.23;;;12.40;99.90;;;;;;5050370;28;20395;-71
2021/11/12 01:48:24;;;;;;;1.17;1.00;;;12.40;99.90;;;;;;5050050;28;20665;-71
2021/11/12 01:50:57;;;;;;;2.23;1.30;;;12.40;99.90;;;;;;5049308;28;20585;-72
2021/11/12 01:53:31;;;;;;;1.57;0.83;;;12.40;99.90;;;;;;5050372;28;20261;-72
2021/11/12 01:59:04;;;;;;;0.90;0.90;;;12.30;99.90;;;;;;4956719;28;20207;-72
2021/11/12 02:01:33;;;;;;;1.00;1.00;;;12.30;99.90;;;;;;4966535;28;20222;-72
2021/11/12 02:04:03;;;;;;;0.70;0.70;;;12.20;99.90;;;;;;4957290;28;20351;-72
2021/11/12 02:06:31;;;;;;;1.33;0.70;;;12.20;99.90;;;;;;4967380;28;20299;-72
2021/11/12 02:08:58;;;;;;;1.50;0.97;;;12.20;99.90;;;;;;4964524;28;20654;-71
2021/11/12 02:11:25;;;;;;;1.00;1.00;;;12.20;99.90;;;;;;4960171;28;20715;-72
2021/11/12 02:13:52;;;;;;;1.07;0.97;;;12.20;99.90;;;;;;4986619;28;20294;-71
2021/11/12 02:16:24;;;;;;;1.83;1.10;;;12.20;99.90;;;;;;4970350;28;20208;-72
2021/11/12 02:18:51;;;;;;;1.33;0.80;;;12.20;99.90;;;;;;4963722;28;20203;-72
2021/11/12 02:21:26;;;;;;;1.03;0.90;;;12.10;99.90;;;;;;4962509;28;20203;-72
2021/11/12 02:24:00;;;;;;;2.10;1.00;;;12.10;99.90;;;;;;4961838;28;20359;-72
2021/11/12 02:26:31;;;;;;;0.90;0.90;;;12.10;99.90;;;;;;4966674;28;20654;-72
2021/11/12 02:28:58;;;;;;;1.10;0.80;;;12.10;99.90;;;;;;4964439;28;20205;-71
2021/11/12 02:31:27;;;;;;;0.57;0.57;;;12.10;99.90;;;;;;4968103;28;20201;-71
2021/11/12 02:33:56;;;;;;;0.70;0.70;;;12.10;99.90;;;;;;4980129;28;21003;-71
2021/11/12 02:36:25;;;;;;;1.60;1.30;;;12.10;99.90;;;;;;5022817;28;20670;-72
2021/11/12 02:38:55;;;;;;;1.63;0.80;;;12.10;99.90;;;;;;5049711;28;20193;-71
2021/11/12 02:41:24;;;;;;;1.00;0.80;;;12.10;99.90;;;;;;5049909;28;20228;-71
2021/11/12 02:43:53;;;;;;;1.23;0.70;;;12.10;99.90;;;;;;5047554;28;20400;-71
2021/11/12 02:46:22;;;;;;;0.73;0.70;;;12.10;99.90;;;;;;5049311;28;20221;-71
2021/11/12 02:48:50;;;;;;;0.70;0.70;;;12.10;99.90;;;;;;5046987;28;20553;-71
2021/11/12 02:51:21;;;;;;;0.83;0.70;;;12.10;99.90;;;;;;5047826;28;20277;-70
2021/11/12 02:53:50;;;;;;;0.73;0.73;;;12.00;99.90;;;;;;5051221;28;20230;-70
2021/11/12 02:56:25;;;;;;;0.50;0.50;;;11.90;99.90;;;;;;5048002;28;20751;-71
2021/11/12 02:58:52;;;;;;;0.40;0.40;;;12.00;99.90;;;;;;5047759;28;20600;-71
2021/11/12 03:01:19;;;;;;;0.60;0.40;;;11.90;99.90;;;;;;5052790;28;20285;-71
2021/11/12 03:03:46;;;;;;;0.50;0.50;;;11.90;99.90;;;;;;5051879;28;20205;-71
2021/11/12 03:06:13;;;;;;;0.97;0.50;;;11.90;99.90;;;;;;5049901;28;20305;-71
2021/11/12 03:08:40;;;;;;;1.23;0.47;;;11.90;99.90;;;;;;5048517;28;20236;-71
2021/11/12 03:11:09;;;;;;;0.40;0.40;;;11.90;99.90;;;;;;5048160;28;20209;-71
2021/11/12 03:13:36;;;;;;;1.30;0.53;;;11.90;99.90;;;;;;5047678;28;20205;-71
2021/11/12 03:16:03;;;;;;;0.53;0.53;;;11.90;99.90;;;;;;5048533;28;20201;-71
2021/11/12 03:18:32;;;;;;;1.43;0.70;;;11.90;99.90;;;;;;5047888;28;20300;-71
2021/11/12 03:21:00;;;;;;;0.50;0.50;;;11.80;99.90;;;;;;5048283;28;20202;-71
2021/11/12 03:23:30;;;;;;;0.50;0.50;;;11.80;99.90;;;;;;5049322;28;20205;-71
2021/11/12 03:26:06;;;;;;;0.63;0.50;;;11.80;99.90;;;;;;5047682;28;20597;-71
2021/11/12 03:28:51;;;;;;;0.40;0.40;;;11.80;99.90;;;;;;5047240;28;20292;-72
2021/11/12 04:01:56;;;;;;;0.47;0.40;;;11.50;99.90;;;;;;4999763;28;20236;-72
2021/11/12 04:04:35;;;;;;;0.80;0.50;;;11.50;99.90;;;;;;4999405;28;20227;-72
2021/11/12 04:07:11;;;;;;;1.00;0.50;;;11.50;99.90;;;;;;5000341;28;20746;-72
2021/11/12 04:18:09;;;;;;;0.70;0.60;;;11.40;99.90;;;;;;5009998;28;20207;-71
2021/11/12 04:20:48;;;;;;;1.17;0.43;;;11.40;99.90;;;;;;5006224;28;20220;-71
2021/11/12 05:10:16;;;;;;;0.40;0.40;;;11.50;99.90;;;;;;5005522;28;20209;-72
2021/11/12 05:34:53;;;;;;;1.03;0.50;;;11.20;99.90;;;;;;4947322;28;20197;-72
2021/11/12 05:56:56;;;;;;;1.00;0.80;;;10.70;99.90;;;;;;5008411;28;20230;-71
2021/11/12 05:59:24;;;;;;;0.63;0.60;;;10.70;99.90;;;;;;5008126;28;20249;-72
2021/11/12 06:01:53;;;;;;;1.07;0.70;;;10.60;99.90;;;;;;4992606;28;20217;-72
2021/11/12 06:04:21;;;;;;;0.60;0.60;;;10.60;99.90;;;;;;4987585;28;20680;-71
2021/11/12 06:06:48;;;;;;;1.40;0.70;;;10.60;99.90;;;;;;5008066;28;20200;-71
2021/11/12 06:09:15;;;;;;;1.17;0.70;;;10.60;99.90;;;;;;4991878;28;20202;-71
2021/11/12 06:11:43;;;;;;;0.87;0.87;;;10.50;99.90;;;;;;5008356;28;20216;-71
2021/11/12 06:14:12;;;;;;;0.70;0.70;;;10.50;99.90;;;;;;5007575;28;20208;-71
2021/11/12 06:16:40;;;;;;;0.80;0.60;;;10.50;99.90;;;;;;4992293;28;20215;-71
2021/11/12 06:19:07;;;;;;;1.60;0.80;;;10.40;99.90;;;;;;4990334;28;20233;-71
2021/11/12 06:21:34;;;;;;;1.13;1.00;;;10.40;99.90;;;;;;4997967;28;20287;-71
2021/11/12 06:24:01;;;;;;;0.77;0.70;;;10.40;99.90;;;;;;5006748;28;20650;-71
2021/11/12 06:26:28;;;;;;;0.80;0.80;;;10.30;99.90;;;;;;4997429;28;20221;-71
2021/11/12 06:28:58;;;;;;;0.60;0.60;;;10.40;99.90;;;;;;5007388;28;20242;-71
2021/11/12 06:31:27;;;;;;;0.63;0.63;;;10.40;99.90;;;;;;5035539;28;20545;-71
2021/11/12 06:33:55;;;;;;;0.60;0.60;;;10.40;99.90;;;;;;5046790;28;20200;-71
2021/11/12 06:36:25;;;;;;;1.33;0.90;;;10.40;99.90;;;;;;5050467;28;20200;-71
2021/11/12 06:38:52;;;;;;;1.07;0.80;;;10.50;99.90;;;;;;5048879;28;20213;-71
2021/11/12 06:41:36;;;;;;;0.90;0.83;;;10.50;99.90;;;;;;5048904;28;20208;-71
2021/11/12 06:44:22;;;;;;;0.73;0.73;;;10.60;99.90;;;;;;5050601;28;20206;-71
2021/11/12 06:49:49;;;;;;;1.03;0.67;;;10.70;99.90;;;;;;5044782;28;20236;-71
2021/11/12 06:52:17;;;;;;;1.03;0.80;;;10.80;99.90;;;;;;5053691;28;20326;-71
2021/11/12 06:54:45;;;;;;;0.70;0.70;;;10.80;99.90;;;;;;5047243;28;20716;-71
2021/11/12 06:57:13;;;;;;;0.70;0.70;;;10.90;99.90;;;;;;5047552;28;20204;-71
2021/11/12 06:59:40;;;;;;;1.93;0.80;;;10.90;99.90;;;;;;5049313;28;20636;-71
2021/11/12 07:02:10;;;;;;;0.97;0.87;;;11.00;99.90;;;;;;5048284;28;20216;-72
2021/11/12 07:04:37;;;;;;;0.80;0.80;;;11.10;99.90;;;;;;5047434;28;20209;-72
2021/11/12 07:07:05;;;;;;;2.87;1.23;;;11.20;99.90;;;;;;5064490;28;20220;-72
2021/11/12 07:09:32;;;;;;;1.00;0.90;;;11.30;99.90;;;;;;5063904;28;20268;-72
2021/11/12 07:11:59;;;;;;;1.60;0.90;;;11.30;99.90;;;;;;5049085;28;20641;-73
2021/11/12 07:14:26;;;;;;;1.03;0.90;;;11.40;99.90;;;;;;5046990;28;20215;-70
2021/11/12 07:16:53;;;;;;;2.10;1.03;;;11.60;99.90;;;;;;5047834;28;20600;-71
2021/11/12 07:19:22;;;;;;;0.83;0.80;;;11.60;99.90;;;;;;5041496;28;20666;-72
2021/11/12 07:21:49;;;;;;;2.40;1.00;;;11.80;99.90;;;;;;5049349;28;20207;-71
2021/11/12 07:24:16;;;;;;;1.70;1.20;;;11.80;99.90;;;;;;5048620;28;20918;-71
2021/11/12 07:26:43;;;;;;;1.27;1.17;;;11.90;99.90;;;;;;5046602;28;20223;-71
2021/11/12 07:29:10;;;;;;;1.70;1.00;;;12.00;99.90;;;;;;5048665;28;20218;-71
2021/11/12 07:31:39;;;;;;;2.07;1.10;;;12.00;99.90;;;;;;5047816;28;20231;-71
2021/11/12 07:34:06;;;;;;;2.97;1.20;;;12.10;99.90;;;;;;5047020;28;20211;-71
2021/11/12 07:36:37;;;;;;;1.30;1.17;;;12.20;99.90;;;;;;5060613;28;20678;-71
2021/11/12 07:39:07;;;;;;;3.70;1.60;;;12.20;99.90;;;;;;5044564;28;20257;-71
2021/11/12 07:41:54;;;;;;;2.17;1.50;;;12.20;99.90;;;;;;5047436;28;20203;-72
2021/11/12 07:44:35;;;;;;;1.97;1.43;;;12.20;99.90;;;;;;5048363;28;20312;-72
2021/11/12 07:47:10;;;;;;;2.83;1.33;;;12.20;99.90;;;;;;5047024;28;20247;-71
2021/11/12 07:49:38;;;;;;;1.70;1.30;;;12.20;99.90;;;;;;5048397;28;20199;-71
2021/11/12 07:52:08;;;;;;;4.20;1.00;;;12.20;99.90;;;;;;5047512;28;20203;-72
2021/11/12 07:54:35;;;;;;;0.73;0.73;;;12.20;99.90;;;;;;5046683;28;20330;-72
2021/11/12 07:57:02;;;;;;;0.80;0.80;;;12.30;99.90;;;;;;5046434;28;20613;-71
2021/11/12 07:59:29;;;;;;;0.80;0.80;;;12.30;99.90;;;;;;5057267;28;20237;-71
2021/11/12 08:01:56;;;;;;;1.37;1.23;;;12.30;99.90;;;;;;5046609;28;20663;-71
2021/11/12 08:04:23;;;;;;;3.10;0.90;;;12.30;99.90;;;;;;5044758;28;20256;-71
2021/11/12 08:06:53;;;;;;;3.37;1.23;;;12.40;99.90;;;;;;5047553;28;20267;-71
2021/11/12 08:09:25;;;;;;;1.27;1.10;;;12.40;99.90;;;;;;5047976;28;20277;-72
2021/11/12 08:11:54;;;;;;;2.50;1.10;;;12.50;99.90;;;;;;5063259;28;20202;-72
2021/11/12 08:14:25;;;;;;;2.90;1.40;;;12.60;99.90;;;;;;5045982;28;20615;-72
2021/11/12 08:17:09;;;;;;;1.30;1.10;;;12.60;99.90;;;;;;5047658;28;20206;-72
2021/11/12 08:19:39;;;;;;;1.47;0.80;;;12.60;99.90;;;;;;5042013;28;20201;-72
2021/11/12 08:22:09;;;;;;;2.43;1.33;;;12.70;99.90;;;;;;5048588;28;20197;-72
2021/11/12 08:24:44;;;;;;;1.33;0.80;;;12.70;99.90;;;;;;5040419;28;20268;-71
2021/11/12 08:30:11;;;;;;;1.70;1.13;;;12.70;99.90;;;;;;4992736;28;20289;-72
2021/11/12 08:32:50;;;;;;;1.57;1.03;;;12.70;99.90;;;;;;4992634;28;20204;-72
2021/11/12 08:35:38;;;;;;;1.10;1.00;;;12.70;99.90;;;;;;4978437;28;20338;-72
2021/11/12 08:38:16;;;;;;;1.33;1.00;;;12.70;99.90;;;;;;4992294;28;20677;-71
2021/11/12 08:40:59;;;;;;;1.40;0.80;;;12.80;99.90;;;;;;4998177;28;20309;-73
2021/11/12 08:43:29;;;;;;;1.53;0.97;;;12.80;99.90;;;;;;4994487;28;20356;-72
2021/11/12 08:46:10;;;;;;;1.00;0.70;;;12.90;99.90;;;;;;4973269;28;20230;-71
2021/11/12 08:48:52;;;;;;;1.50;1.00;;;12.90;99.90;;;;;;4984854;28;20635;-72
2021/11/12 08:51:21;;;;;;;1.73;1.00;;;12.90;99.90;;;;;;5003971;28;20204;-72
2021/11/12 08:53:48;;;;;;;3.00;0.80;;;13.00;99.90;;;;;;4991899;28;20207;-72
2021/11/12 08:56:19;;;;;;;2.30;0.90;;;13.00;99.90;;;;;;5008329;28;20278;-72
2021/11/12 08:58:48;;;;;;;2.60;0.80;;;13.00;99.90;;;;;;4986593;28;20350;-73
2021/11/12 09:01:16;;;;;;;1.87;1.03;;;13.10;99.90;;;;;;4979792;28;20261;-73
2021/11/12 09:03:44;;;;;;;2.70;1.20;;;13.30;99.90;;;;;;4978145;28;20561;-74
2021/11/12 09:06:11;;;;;;;2.10;1.10;;;13.40;99.90;;;;;;4991950;28;20239;-73
2021/11/12 09:08:39;;;;;;;1.33;0.90;;;13.60;99.90;;;;;;5046305;28;20571;-74
2021/11/12 09:11:08;;;;;;;3.77;1.20;;;13.80;99.90;;;;;;5061979;28;20901;-73
2021/11/12 09:13:42;;;;;;;2.10;1.10;;;14.00;99.90;;;;;;5041847;28;20201;-74
2021/11/12 09:16:11;;;;;;;1.77;1.00;;;14.20;99.90;;;;;;5045732;28;20218;-74
2021/11/12 09:18:39;;;;;;;1.90;0.87;;;14.20;99.90;;;;;;5040612;28;20593;-73
2021/11/12 09:21:06;;;;;;;1.27;1.07;;;14.40;99.90;;;;;;5043136;28;20204;-74
2021/11/12 09:23:33;;;;;;;1.70;0.80;;;14.50;99.90;;;;;;5043197;28;20209;-74
2021/11/12 09:26:01;;;;;;;1.00;0.90;;;14.60;99.90;;;;;;5041640;28;20228;-73
2021/11/12 09:28:28;;;;;;;2.70;1.00;;;14.80;99.90;;;;;;5030470;28;20243;-73
2021/11/12 09:30:57;;;;;;;1.25;0.80;;;14.90;99.90;;;;;;5042656;28;20515;-75
2021/11/12 09:33:24;;;;;;;1.90;1.10;;;15.00;99.90;;;;;;5045369;28;20451;-74
2021/11/12 09:35:51;;;;;;;3.90;1.20;;;15.10;99.90;;;;;;5048266;28;20928;-75
2021/11/12 09:38:18;;;;;;;5.13;1.37;;;15.20;99.90;;;;;;5049978;28;20292;-74
2021/11/12 09:40:45;;;;;;;2.50;1.20;;;15.30;99.90;;;;;;5051115;28;20658;-74
2021/11/12 09:43:12;;;;;;;1.20;0.80;;;15.30;99.90;;;;;;5052038;28;20221;-73
2021/11/12 09:45:40;;;;;;;4.33;1.20;;;15.30;99.90;;;;;;5049261;28;20740;-74
2021/11/12 09:48:10;;;;;;;3.57;1.30;;;15.30;99.90;;;;;;5049878;28;20205;-74
2021/11/12 09:50:39;;;;;;;3.37;1.17;;;15.40;99.90;;;;;;5057955;28;20555;-74
2021/11/12 09:53:06;;;;;;;1.10;0.83;;;15.60;99.90;;;;;;5047323;28;20203;-74
2021/11/12 09:55:33;;;;;;;3.20;1.00;;;15.90;99.90;;;;;;5048870;28;20264;-74
2021/11/12 09:58:02;;;;;;;5.13;1.40;;;16.10;99.50;;;;;;5049553;28;20233;-74
2021/11/12 10:00:32;;;;;;;2.27;1.30;;;16.30;98.90;;;;;;5049568;28;20259;-74
2021/11/12 10:03:00;;;;;;;4.07;1.20;;;16.50;98.60;;;;;;5050068;28;20193;-73
2021/11/12 10:05:38;;;;;;;2.20;1.00;;;16.50;97.70;;;;;;5048817;28;20209;-73
2021/11/12 10:08:22;;;;;;;3.27;1.80;;;16.60;97.70;;;;;;5050971;28;20267;-73
2021/11/12 10:10:52;;;;;;;1.83;0.90;;;16.60;97.50;;;;;;5038114;28;20193;-73
2021/11/12 10:13:23;;;;;;;3.73;1.60;;;16.60;97.30;;;;;;5051361;28;20194;-73
2021/11/12 10:15:59;;;;;;;2.27;1.33;;;16.50;96.80;;;;;;5038729;28;20198;-73
2021/11/12 10:18:27;;;;;;;3.07;1.60;;;16.50;96.80;;;;;;5050137;28;20723;-73
2021/11/12 10:21:01;;;;;;;3.23;1.20;;;16.50;96.40;;;;;;5049670;28;20201;-74
2021/11/12 10:23:32;;;;;;;1.00;0.80;;;16.50;96.20;;;;;;5054436;28;20222;-73
2021/11/12 10:26:05;;;;;;;2.27;1.00;;;16.40;96.20;;;;;;5056702;28;20273;-74
2021/11/12 10:28:38;;;;;;;1.80;0.80;;;16.30;96.20;;;;;;5045589;28;20217;-74
2021/11/12 10:31:17;;;;;;;1.83;1.10;;;16.20;96.20;;;;;;5050933;28;20232;-73
2021/11/12 10:33:44;;;;;;;3.30;1.17;;;16.10;96.30;;;;;;5049235;28;20247;-73
2021/11/12 10:36:13;;;;;;;1.73;1.20;;;16.10;96.10;;;;;;5049959;28;20190;-73
2021/11/12 10:38:43;;;;;;;1.83;1.17;;;16.00;96.00;;;;;;5050381;28;20201;-73
2021/11/12 10:41:18;;;;;;;2.83;1.27;;;15.90;96.10;;;;;;5045375;28;20310;-74
2021/11/12 10:43:45;;;;;;;1.10;0.97;;;15.90;96.10;;;;;;5035018;28;20207;-74
2021/11/12 10:46:12;;;;;;;2.20;0.90;;;15.90;96.10;;;;;;5056117;28;20233;-74
2021/11/12 10:48:40;;;;;;;2.70;1.13;;;15.80;96.10;;;;;;5058256;28;20203;-74
2021/11/12 10:51:20;;;;;;;1.30;1.00;;;15.80;96.10;;;;;;5042004;28;20700;-74
2021/11/12 10:53:53;;;;;;;3.23;1.13;;;15.90;96.10;;;;;;5065636;28;20213;-73
2021/11/12 10:56:21;;;;;;;1.27;1.00;;;15.90;96.00;;;;;;5045096;28;20222;-73
2021/11/12 10:58:59;;;;;;;2.70;1.37;;;15.80;95.80;;;;;;5047367;28;20202;-73
2021/11/12 11:01:36;;;;;;;1.97;1.20;;;15.80;95.70;;;;;;5048684;28;20215;-73
2021/11/12 11:04:21;;;;;;;3.53;2.10;;;15.70;95.70;;;;;;5050496;28;20332;-74
2021/11/12 11:06:50;;;;;;;3.13;2.80;;;15.70;95.70;;;;;;5042568;28;20205;-73
2021/11/12 11:09:17;;;;;;;3.60;2.87;;;15.60;95.60;;;;;;5048087;28;20208;-74
2021/11/12 11:11:47;;;;;;;4.97;2.80;;;15.60;95.80;;;;;;5047675;28;20293;-74
2021/11/12 11:14:32;;;;;;;2.70;2.17;;;15.50;95.40;;;;;;5037682;28;20502;-72
2021/11/12 11:17:24;;;;;;;3.07;1.97;;;15.50;95.40;;;;;;5048405;28;20209;-73
2021/11/12 11:19:51;;;;;;;5.03;1.87;;;15.40;95.40;;;;;;5047846;28;20197;-73
2021/11/12 11:22:19;;;;;;;1.83;1.53;;;15.30;95.30;;;;;;5050048;28;20260;-74
2021/11/12 11:24:50;;;;;;;5.00;1.50;;;15.30;95.50;;;;;;5054360;28;20301;-72
2021/11/12 11:27:17;;;;;;;3.23;1.10;;;15.20;95.40;;;;;;5048980;28;20616;-72
2021/11/12 11:29:44;;;;;;;3.07;1.30;;;15.20;95.50;;;;;;5047479;28;20739;-72
2021/11/12 11:32:11;;;;;;;2.83;1.27;;;15.20;95.40;;;;;;5055366;28;20296;-73
2021/11/12 11:34:39;;;;;;;5.57;1.50;;;15.10;95.40;;;;;;5049147;28;20213;-74
2021/11/12 11:37:07;;;;;;;5.03;1.80;;;15.10;95.30;;;;;;5049404;28;20197;-73
2021/11/12 11:39:36;;;;;;;3.53;1.67;;;15.10;95.30;;;;;;5048522;28;20734;-73
2021/11/12 11:42:04;;;;;;;3.00;1.47;;;15.10;95.30;;;;;;5050495;28;20245;-73
2021/11/12 11:44:32;;;;;;;1.70;1.50;;;15.10;95.30;;;;;;5039092;28;20213;-73
2021/11/12 11:47:02;;;;;;;7.37;1.70;;;15.10;95.30;;;;;;5056564;28;20222;-73
2021/11/12 11:49:31;;;;;;;0.93;0.90;;;15.20;95.20;;;;;;5046419;28;20689;-73
2021/11/12 11:51:59;;;;;;;1.60;1.10;;;15.30;95.10;;;;;;5047968;28;20206;-73
2021/11/12 11:54:30;;;;;;;1.30;1.20;;;15.30;95.00;;;;;;5048948;28;20308;-73
2021/11/12 11:57:01;;;;;;;4.50;1.40;;;15.50;95.00;;;;;;5047722;28;20598;-73
2021/11/12 11:59:35;;;;;;;1.53;1.37;;;15.40;95.00;;;;;;5036795;28;20197;-73
2021/11/12 12:02:04;;;;;;;3.80;1.43;;;15.50;94.70;;;;;;5043982;28;20711;-73
2021/11/12 12:04:40;;;;;;;1.70;1.50;;;15.50;94.70;;;;;;5037012;28;20209;-73
2021/11/12 12:07:28;;;;;;;3.30;1.20;;;15.50;94.90;;;;;;5029959;28;20244;-73
2021/11/12 12:10:12;;;;;;;3.77;1.13;;;15.60;94.50;;;;;;5032796;28;20194;-73
2021/11/12 12:12:55;;;;;;;3.40;1.23;;;15.60;94.40;;;;;;5032525;28;20217;-72
2021/11/12 12:15:43;;;;;;;3.07;1.50;;;15.60;94.30;;;;;;5031825;28;20229;-73
2021/11/12 12:18:19;;;;;;;2.17;1.30;;;15.60;94.30;;;;;;5038150;28;20205;-72
2021/11/12 12:21:19;;;;;;;2.13;1.13;;;15.50;94.20;;;;;;5040381;28;20823;-73
2021/11/12 13:20:46;;;;;;;0.93;0.83;;;14.00;94.70;;;;;;5037100;28;20278;-74
2021/11/12 13:23:27;;;;;;;2.70;1.30;;;13.90;94.70;;;;;;5048321;28;20203;-74
2021/11/12 13:25:56;;;;;;;1.30;1.20;;;13.80;94.70;;;;;;5038138;28;20291;-74
2021/11/12 13:28:25;;;;;;;2.03;1.10;;;13.80;94.80;;;;;;5046696;28;20319;-74
2021/11/12 13:30:56;;;;;;;0.93;0.83;;;13.70;94.90;;;;;;5045724;28;20274;-74
2021/11/12 13:33:40;;;;;;;1.57;1.23;;;13.60;94.90;;;;;;5047456;28;20318;-74
2021/11/12 13:36:20;;;;;;;1.30;1.20;;;13.60;95.00;;;;;;5049395;28;20217;-74
2021/11/12 13:38:49;;;;;;;1.30;1.03;;;13.60;95.00;;;;;;5050473;28;20610;-74
2021/11/12 13:41:19;;;;;;;4.27;1.23;;;13.50;95.00;;;;;;5050781;28;20194;-74
2021/11/12 13:43:48;;;;;;;3.90;1.50;;;13.50;95.10;;;;;;5051432;28;20306;-74
2021/11/12 13:46:15;;;;;;;1.30;1.20;;;13.50;95.20;;;;;;5050696;28;20295;-74
2021/11/12 13:48:49;;;;;;;0.90;0.90;;;13.40;95.20;;;;;;5049202;28;20230;-74
2021/11/12 13:51:23;;;;;;;1.23;0.93;;;13.30;95.20;;;;;;5059478;28;20211;-74
2021/11/12 13:53:51;;;;;;;1.37;0.97;;;13.30;95.30;;;;;;5045697;28;20209;-74
2021/11/12 13:56:19;;;;;;;1.33;0.80;;;13.30;95.40;;;;;;5049774;28;20293;-74
2021/11/12 13:58:46;;;;;;;2.07;1.07;;;13.20;95.40;;;;;;5049142;28;20314;-74
2021/11/12 14:01:22;;;;;;;1.47;0.80;;;13.20;95.50;;;;;;5050618;28;20302;-74
2021/11/12 14:03:50;;;;;;;1.40;0.80;;;13.10;95.60;;;;;;5048089;28;20630;-74
2021/11/12 14:06:20;;;;;;;4.93;3.00;;;13.10;95.60;;;;;;5049797;28;20212;-74
2021/11/12 14:08:49;;;;;;;10.77;6.37;;;13.10;95.70;;;;;;5049280;28;20228;-74
2021/11/12 14:11:25;;;;;;;8.80;6.00;;;13.10;95.80;;;;;;5049960;28;20225;-74
2021/11/12 14:13:53;;;;;;;6.53;4.37;;;13.10;95.90;;;;;;5053073;28;20328;-74
2021/11/12 14:16:32;;;;;;;4.23;3.50;;;13.10;95.90;;;;;;5050047;28;20289;-74
2021/11/12 14:21:50;;;;;;;3.33;2.10;;;13.10;95.90;;;;;;5048700;28;20195;-74
2021/11/12 14:27:21;;;;;;;2.20;1.70;;;13.00;95.90;;;;;;5060578;28;20526;-74
2021/11/12 14:30:07;;;;;;;1.13;1.03;;;13.00;95.90;;;;;;5045691;28;20206;-74
2021/11/12 14:32:48;;;;;;;1.20;1.10;;;13.00;95.90;;;;;;5043009;28;20229;-74
2021/11/12 14:35:26;;;;;;;1.13;0.90;;;13.00;96.00;;;;;;5047357;28;20653;-74
2021/11/12 14:46:28;;;;;;;1.23;0.90;;;12.80;96.20;;;;;;5019393;28;20305;-74
2021/11/12 14:49:08;;;;;;;2.03;1.37;;;12.80;96.30;;;;;;5004130;28;20222;-74
2021/11/12 14:51:39;;;;;;;0.90;0.90;;;12.80;96.40;;;;;;5008095;28;20206;-73
2021/11/12 14:54:10;;;;;;;1.10;1.00;;;12.70;96.40;;;;;;5001021;28;20956;-73
2021/11/12 14:56:38;;;;;;;1.00;0.90;;;12.70;96.50;;;;;;5018258;28;20214;-73
2021/11/12 14:59:08;;;;;;;0.90;0.87;;;12.70;97.00;;;;;;5006323;28;20249;-73
2021/11/12 15:01:38;;;;;;;0.93;0.73;;;12.60;96.60;;;;;;5021071;28;20227;-73
2021/11/12 15:04:05;;;;;;;1.00;0.90;;;12.60;96.70;;;;;;5015514;28;20503;-73
2021/11/12 15:06:34;;;;;;;2.28;1.10;;;12.50;96.90;;;;;;5003657;28;20937;-72
2021/11/12 15:09:05;;;;;;;1.00;0.90;;;12.50;97.20;;;;;;5009328;28;20540;-72
2021/11/12 15:11:34;;;;;;;1.33;0.90;;;12.50;97.30;;;;;;5014444;28;20207;-71
2021/11/12 15:14:05;;;;;;;1.37;1.03;;;12.50;97.20;;;;;;5022925;28;20203;-71
2021/11/12 15:16:33;;;;;;;1.33;0.90;;;12.40;97.20;;;;;;5031724;28;20504;-71
2021/11/12 15:19:03;;;;;;;1.07;0.80;;;12.30;97.20;;;;;;5049046;28;20198;-72
2021/11/12 15:21:33;;;;;;;1.10;0.90;;;12.20;97.30;;;;;;5049521;28;20601;-72
2021/11/12 15:24:12;;;;;;;1.30;1.20;;;12.10;97.40;;;;;;5048044;28;20202;-72
2021/11/12 15:29:31;;;;;;;2.97;1.27;;;12.00;97.50;;;;;;4989740;28;20326;-72
2021/11/12 15:32:08;;;;;;;1.40;1.30;;;11.90;97.60;;;;;;4997638;28;20211;-72
2021/11/12 15:34:39;;;;;;;1.33;1.23;;;11.80;97.70;;;;;;4989603;28;20221;-72
2021/11/12 15:37:09;;;;;;;6.67;4.60;;;11.80;97.90;;;;;;4982612;28;20236;-72
2021/11/12 15:45:20;;;;;;;5.60;3.90;;;11.70;98.20;;;;;;4930308;29;20205;-72
2021/11/12 15:47:49;;;;;;;6.03;3.73;;;11.60;98.30;;;;;;4922072;29;20313;-72
2021/11/12 15:50:20;;;;;;;4.03;3.33;;;11.50;98.40;;;;;;4930650;29;20204;-72
2021/11/12 15:52:57;;;;;;;3.40;2.83;;;11.50;98.50;;;;;;4932515;29;20263;-72
2021/11/12 15:55:31;;;;;;;3.70;2.50;;;11.40;98.60;;;;;;4920037;29;20235;-72
2021/11/12 16:00:56;;;;;;;3.67;2.00;;;11.30;98.80;;;;;;4931340;29;20372;-72
2021/11/12 16:06:44;;;;;;;1.77;1.40;;;11.20;99.00;;;;;;4893678;29;20220;-72
2021/11/12 16:14:55;;;;;;;1.83;1.40;;;11.00;99.30;;;;;;4889634;29;20730;-73
2021/11/12 16:17:46;;;;;;;3.03;1.50;;;11.00;99.50;;;;;;4875492;29;20286;-72
2021/11/12 16:20:34;;;;;;;4.17;2.30;;;10.90;99.60;;;;;;4918528;29;20266;-72
2021/11/12 16:25:46;;;;;;;4.03;1.93;;;10.70;99.80;;;;;;4890800;29;20237;-72
2021/11/12 16:28:19;;;;;;;3.83;2.10;;;10.70;99.90;;;;;;4875576;29;20232;-72
2021/11/12 16:30:53;;;;;;;9.03;3.17;;;10.70;99.90;;;;;;4874166;29;20704;-71
2021/11/12 16:33:20;;;;;;;10.33;4.70;;;10.60;99.90;;;;;;4875367;29;20703;-72
2021/11/12 16:35:49;;;;;;;16.23;6.93;;;10.60;99.90;;;;;;4875138;29;20218;-72
2021/11/12 16:38:18;;;;;;;21.47;8.57;;;10.50;99.90;;;;;;4891459;29;20832;-72
2021/11/12 16:40:48;;;;;;;18.30;8.27;;;10.50;99.90;;;;;;4890412;29;20787;-72
2021/11/12 16:43:22;;;;;;;21.17;8.20;;;10.40;99.90;;;;;;4892556;29;20226;-72
2021/11/12 16:48:43;;;;;;;15.53;7.40;;;10.30;99.90;;;;;;4977684;28;20635;-72
2021/11/12 16:59:25;;;;;;;30.47;15.63;;;10.10;99.90;;;;;;4953847;28;20676;-72
2021/11/12 17:04:56;;;;;;;29.90;14.23;;;10.00;99.90;;;;;;4964579;28;20205;-72
2021/11/12 17:07:35;;;;;;;21.10;11.00;;;10.00;99.90;;;;;;4959296;28;20619;-72
2021/11/12 17:10:13;;;;;;;32.80;16.90;;;10.00;99.90;;;;;;4967264;28;20293;-72
2021/11/12 17:15:40;;;;;;;36.80;18.37;;;9.90;99.90;;;;;;4971578;28;20733;-71
2021/11/12 17:48:30;;;;;;;31.43;13.80;;;9.50;99.90;;;;;;5038524;28;20224;-72
2021/11/12 17:51:14;;;;;;;30.83;12.93;;;9.40;99.90;;;;;;5055506;28;21665;-72
2021/11/12 18:02:05;;;;;;;27.47;12.13;;;9.40;99.90;;;;;;5002080;28;20665;-73
2021/11/12 18:04:54;;;;;;;25.57;11.03;;;9.40;99.90;;;;;;4998834;28;20558;-72